KSBA/SBA METAR and TAF weather

Enter ICAO airport designator
Station Type Date Time Source
KSBA METAR 2019/06/18 16:53 UTC NOAA

KSBA 181653Z 16004KT 10SM OVC015 17/13 A2997 RMK AO2 SLP147 T01720133


Station Type Date Time Source
KSBA Decoded METAR 2019/06/18 16:53 UTC NOAA

SANTA BARBARA MUNICIPAL, CA, United States (KSBA) 34-26N 119-51W 3M
Jun 18, 2019 - 12:53 PM EDT / 2019.06.18 1653 UTC
Wind: from the SSE (160 degrees) at 5 MPH (4 KT):0
Visibility: 10 mile(s):0
Sky conditions: overcast
Temperature: 63.0 F (17.2 C)
Dew Point: 55.9 F (13.3 C)
Relative Humidity: 77%
Pressure (altimeter): 29.97 in. Hg (1014 hPa)
ob: KSBA 181653Z 16004KT 10SM OVC015 17/13 A2997 RMK AO2 SLP147 T01720133
cycle: 17

Station Type Date Time Source
KSBA TAF 2019/06/18 12:45 UTC NOAA

TAF KSBA 181142Z 1812/1912 VRB03KT P6SM OVC015
FM181700 17006KT P6SM BKN020
FM182200 24010KT P6SM SCT020
FM190400 VRB03KT P6SM BKN015

Example: see airport list